sensor_id;sensor_type;location;lat;lon;timestamp;temperature;humidity
4813;DHT22;2420;51.202;8.698;2022-12-29T00:00:07;6.50;1.00
4813;DHT22;2420;51.202;8.698;2022-12-29T00:02:32;6.50;1.00
4813;DHT22;2420;51.202;8.698;2022-12-29T00:04:58;6.50;1.00
4813;DHT22;2420;51.202;8.698;2022-12-29T00:07:23;6.80;1.00
4813;DHT22;2420;51.202;8.698;2022-12-29T00:09:49;6.30;1.00
4813;DHT22;2420;51.202;8.698;2022-12-29T00:12:15;6.90;1.00
4813;DHT22;2420;51.202;8.698;2022-12-29T00:14:40;6.70;1.00
4813;DHT22;2420;51.202;8.698;2022-12-29T00:17:24;6.90;1.00
4813;DHT22;2420;51.202;8.698;2022-12-29T00:19:50;6.70;1.00
4813;DHT22;2420;51.202;8.698;2022-12-29T00:22:35;6.80;1.00
4813;DHT22;2420;51.202;8.698;2022-12-29T00:25:19;6.80;1.00
4813;DHT22;2420;51.202;8.698;2022-12-29T00:28:04;6.90;1.00
4813;DHT22;2420;51.202;8.698;2022-12-29T00:30:48;6.60;1.00
4813;DHT22;2420;51.202;8.698;2022-12-29T00:33:33;6.90;1.00
4813;DHT22;2420;51.202;8.698;2022-12-29T00:36:37;6.90;1.00
4813;DHT22;2420;51.202;8.698;2022-12-29T00:39:12;6.90;1.00
4813;DHT22;2420;51.202;8.698;2022-12-29T00:42:04;6.90;1.00
4813;DHT22;2420;51.202;8.698;2022-12-29T00:45:05;6.90;1.00
4813;DHT22;2420;51.202;8.698;2022-12-29T00:47:31;7.00;1.00
4813;DHT22;2420;51.202;8.698;2022-12-29T00:49:56;6.50;1.00
4813;DHT22;2420;51.202;8.698;2022-12-29T00:52:22;7.00;1.00
4813;DHT22;2420;51.202;8.698;2022-12-29T00:54:47;7.00;1.00
4813;DHT22;2420;51.202;8.698;2022-12-29T00:57:13;7.00;1.00
4813;DHT22;2420;51.202;8.698;2022-12-29T00:59:40;7.00;1.00
4813;DHT22;2420;51.202;8.698;2022-12-29T01:02:06;7.10;1.00
4813;DHT22;2420;51.202;8.698;2022-12-29T01:04:32;7.10;1.00
4813;DHT22;2420;51.202;8.698;2022-12-29T01:06:58;7.10;1.00
4813;DHT22;2420;51.202;8.698;2022-12-29T01:09:23;7.10;1.00
4813;DHT22;2420;51.202;8.698;2022-12-29T01:12:09;7.10;1.00
4813;DHT22;2420;51.202;8.698;2022-12-29T01:14:36;7.10;1.00
4813;DHT22;2420;51.202;8.698;2022-12-29T01:17:02;7.10;1.00
4813;DHT22;2420;51.202;8.698;2022-12-29T01:19:27;7.20;1.00
4813;DHT22;2420;51.202;8.698;2022-12-29T01:21:53;7.20;1.00
4813;DHT22;2420;51.202;8.698;2022-12-29T01:24:19;7.30;1.00
4813;DHT22;2420;51.202;8.698;2022-12-29T01:26:45;7.30;1.00
4813;DHT22;2420;51.202;8.698;2022-12-29T01:29:11;7.30;1.00
4813;DHT22;2420;51.202;8.698;2022-12-29T01:31:37;7.40;1.00
4813;DHT22;2420;51.202;8.698;2022-12-29T01:34:03;7.40;1.00
4813;DHT22;2420;51.202;8.698;2022-12-29T01:36:29;7.40;1.00
4813;DHT22;2420;51.202;8.698;2022-12-29T01:38:55;7.40;1.00
4813;DHT22;2420;51.202;8.698;2022-12-29T01:41:21;7.50;1.00
4813;DHT22;2420;51.202;8.698;2022-12-29T01:43:52;7.40;1.00
4813;DHT22;2420;51.202;8.698;2022-12-29T01:46:40;7.50;1.00
4813;DHT22;2420;51.202;8.698;2022-12-29T01:49:16;7.50;1.00
4813;DHT22;2420;51.202;8.698;2022-12-29T01:54:24;7.70;1.00
4813;DHT22;2420;51.202;8.698;2022-12-29T01:56:52;7.80;1.00
4813;DHT22;2420;51.202;8.698;2022-12-29T01:59:23;7.80;1.00
4813;DHT22;2420;51.202;8.698;2022-12-29T02:01:50;7.80;1.00
4813;DHT22;2420;51.202;8.698;2022-12-29T02:04:16;7.90;1.00
4813;DHT22;2420;51.202;8.698;2022-12-29T02:06:52;7.90;1.00
4813;DHT22;2420;51.202;8.698;2022-12-29T02:09:19;8.00;1.00
4813;DHT22;2420;51.202;8.698;2022-12-29T02:11:45;7.90;1.00
4813;DHT22;2420;51.202;8.698;2022-12-29T02:14:13;8.00;1.00
4813;DHT22;2420;51.202;8.698;2022-12-29T02:22:34;8.20;1.00
4813;DHT22;2420;51.202;8.698;2022-12-29T02:25:22;8.20;1.00
4813;DHT22;2420;51.202;8.698;2022-12-29T02:27:55;8.20;1.00
4813;DHT22;2420;51.202;8.698;2022-12-29T02:33:55;8.20;1.00
4813;DHT22;2420;51.202;8.698;2022-12-29T02:36:30;8.30;1.00
4813;DHT22;2420;51.202;8.698;2022-12-29T02:39:21;8.30;1.00
4813;DHT22;2420;51.202;8.698;2022-12-29T02:51:07;8.50;1.00
4813;DHT22;2420;51.202;8.698;2022-12-29T02:53:05;8.50;1.00
4813;DHT22;2420;51.202;8.698;2022-12-29T02:55:32;8.60;1.00
4813;DHT22;2420;51.202;8.698;2022-12-29T03:01:03;8.50;1.00
4813;DHT22;2420;51.202;8.698;2022-12-29T03:06:30;8.50;1.00
4813;DHT22;2420;51.202;8.698;2022-12-29T03:09:20;8.60;1.00
4813;DHT22;2420;51.202;8.698;2022-12-29T03:11:59;8.60;1.00
4813;DHT22;2420;51.202;8.698;2022-12-29T03:14:52;8.50;1.00
4813;DHT22;2420;51.202;8.698;2022-12-29T03:17:53;8.50;1.00
4813;DHT22;2420;51.202;8.698;2022-12-29T03:20:42;8.60;1.00
4813;DHT22;2420;51.202;8.698;2022-12-29T03:23:09;8.70;1.00
4813;DHT22;2420;51.202;8.698;2022-12-29T03:25:39;8.70;1.00
4813;DHT22;2420;51.202;8.698;2022-12-29T03:28:09;8.70;1.00
4813;DHT22;2420;51.202;8.698;2022-12-29T03:30:37;8.70;1.00
4813;DHT22;2420;51.202;8.698;2022-12-29T03:33:06;8.80;1.00
4813;DHT22;2420;51.202;8.698;2022-12-29T03:35:35;8.70;1.00
4813;DHT22;2420;51.202;8.698;2022-12-29T03:38:22;8.70;1.00
4813;DHT22;2420;51.202;8.698;2022-12-29T03:40:52;8.80;1.00
4813;DHT22;2420;51.202;8.698;2022-12-29T03:43:19;8.70;1.00
4813;DHT22;2420;51.202;8.698;2022-12-29T03:45:45;8.70;1.00
4813;DHT22;2420;51.202;8.698;2022-12-29T03:48:10;8.60;1.00
4813;DHT22;2420;51.202;8.698;2022-12-29T03:50:36;8.60;1.00
4813;DHT22;2420;51.202;8.698;2022-12-29T03:53:02;8.60;1.00
4813;DHT22;2420;51.202;8.698;2022-12-29T03:55:27;8.60;1.00
4813;DHT22;2420;51.202;8.698;2022-12-29T03:57:53;8.50;1.00
4813;DHT22;2420;51.202;8.698;2022-12-29T04:00:18;8.50;1.00
4813;DHT22;2420;51.202;8.698;2022-12-29T04:02:44;8.50;1.00
4813;DHT22;2420;51.202;8.698;2022-12-29T04:05:09;8.50;1.00
4813;DHT22;2420;51.202;8.698;2022-12-29T04:07:35;8.50;1.00
4813;DHT22;2420;51.202;8.698;2022-12-29T04:10:00;8.50;1.00
4813;DHT22;2420;51.202;8.698;2022-12-29T04:12:26;8.50;1.00
4813;DHT22;2420;51.202;8.698;2022-12-29T04:14:51;8.40;1.00
4813;DHT22;2420;51.202;8.698;2022-12-29T04:17:17;8.50;1.00
4813;DHT22;2420;51.202;8.698;2022-12-29T04:19:43;8.40;1.00
4813;DHT22;2420;51.202;8.698;2022-12-29T04:22:08;8.50;1.00
4813;DHT22;2420;51.202;8.698;2022-12-29T04:24:34;8.40;1.00
4813;DHT22;2420;51.202;8.698;2022-12-29T04:26:59;8.40;1.00
4813;DHT22;2420;51.202;8.698;2022-12-29T04:29:25;8.50;1.00
4813;DHT22;2420;51.202;8.698;2022-12-29T04:31:50;8.50;1.00
4813;DHT22;2420;51.202;8.698;2022-12-29T04:34:16;8.40;1.00
4813;DHT22;2420;51.202;8.698;2022-12-29T04:36:41;8.50;1.00
4813;DHT22;2420;51.202;8.698;2022-12-29T04:39:07;8.40;1.00
4813;DHT22;2420;51.202;8.698;2022-12-29T04:41:33;8.40;1.00
4813;DHT22;2420;51.202;8.698;2022-12-29T04:43:58;8.40;1.00
4813;DHT22;2420;51.202;8.698;2022-12-29T04:46:24;8.40;1.00
4813;DHT22;2420;51.202;8.698;2022-12-29T04:48:49;8.40;1.00
4813;DHT22;2420;51.202;8.698;2022-12-29T04:51:15;8.40;1.00
4813;DHT22;2420;51.202;8.698;2022-12-29T04:53:40;8.40;1.00
4813;DHT22;2420;51.202;8.698;2022-12-29T04:56:06;8.30;1.00
4813;DHT22;2420;51.202;8.698;2022-12-29T04:58:33;8.30;1.00
4813;DHT22;2420;51.202;8.698;2022-12-29T05:00:58;8.30;1.00
4813;DHT22;2420;51.202;8.698;2022-12-29T05:03:24;8.30;1.00
4813;DHT22;2420;51.202;8.698;2022-12-29T05:05:53;8.30;1.00
4813;DHT22;2420;51.202;8.698;2022-12-29T05:08:19;8.40;1.00
4813;DHT22;2420;51.202;8.698;2022-12-29T05:10:45;8.30;1.00
4813;DHT22;2420;51.202;8.698;2022-12-29T05:13:11;8.30;1.00
4813;DHT22;2420;51.202;8.698;2022-12-29T05:15:36;8.30;1.00
4813;DHT22;2420;51.202;8.698;2022-12-29T05:18:02;8.30;1.00
4813;DHT22;2420;51.202;8.698;2022-12-29T05:20:27;8.30;1.00
4813;DHT22;2420;51.202;8.698;2022-12-29T05:22:53;8.30;1.00
4813;DHT22;2420;51.202;8.698;2022-12-29T05:25:18;8.40;1.00
4813;DHT22;2420;51.202;8.698;2022-12-29T05:27:44;8.40;1.00
4813;DHT22;2420;51.202;8.698;2022-12-29T05:30:10;8.50;1.00
4813;DHT22;2420;51.202;8.698;2022-12-29T05:32:35;8.50;1.00
4813;DHT22;2420;51.202;8.698;2022-12-29T05:35:01;8.50;1.00
4813;DHT22;2420;51.202;8.698;2022-12-29T05:37:26;8.60;1.00
4813;DHT22;2420;51.202;8.698;2022-12-29T05:39:52;8.60;1.00
4813;DHT22;2420;51.202;8.698;2022-12-29T05:42:17;8.50;1.00
4813;DHT22;2420;51.202;8.698;2022-12-29T05:44:43;8.50;1.00
4813;DHT22;2420;51.202;8.698;2022-12-29T05:47:08;8.60;1.00
4813;DHT22;2420;51.202;8.698;2022-12-29T05:49:34;8.60;1.00
4813;DHT22;2420;51.202;8.698;2022-12-29T05:52:00;8.60;1.00
4813;DHT22;2420;51.202;8.698;2022-12-29T05:54:25;8.60;1.00
4813;DHT22;2420;51.202;8.698;2022-12-29T05:56:51;8.50;1.00
4813;DHT22;2420;51.202;8.698;2022-12-29T05:59:16;8.50;1.00
4813;DHT22;2420;51.202;8.698;2022-12-29T06:01:42;8.50;1.00
4813;DHT22;2420;51.202;8.698;2022-12-29T06:04:07;8.60;1.00
4813;DHT22;2420;51.202;8.698;2022-12-29T06:06:33;8.60;1.00
4813;DHT22;2420;51.202;8.698;2022-12-29T06:08:58;8.60;1.00
4813;DHT22;2420;51.202;8.698;2022-12-29T06:11:24;8.60;1.00
4813;DHT22;2420;51.202;8.698;2022-12-29T06:13:49;8.60;1.00
4813;DHT22;2420;51.202;8.698;2022-12-29T06:16:15;8.60;1.00
4813;DHT22;2420;51.202;8.698;2022-12-29T06:18:40;8.60;1.00
4813;DHT22;2420;51.202;8.698;2022-12-29T06:21:06;8.60;1.00
4813;DHT22;2420;51.202;8.698;2022-12-29T06:23:32;8.60;1.00
4813;DHT22;2420;51.202;8.698;2022-12-29T06:25:57;8.60;1.00
4813;DHT22;2420;51.202;8.698;2022-12-29T06:28:23;8.60;1.00
4813;DHT22;2420;51.202;8.698;2022-12-29T06:30:49;8.70;1.00
4813;DHT22;2420;51.202;8.698;2022-12-29T06:33:15;8.70;1.00
4813;DHT22;2420;51.202;8.698;2022-12-29T06:35:42;8.70;1.00
4813;DHT22;2420;51.202;8.698;2022-12-29T06:38:07;8.80;1.00
4813;DHT22;2420;51.202;8.698;2022-12-29T06:40:33;8.80;1.00
4813;DHT22;2420;51.202;8.698;2022-12-29T06:42:59;8.80;1.00
4813;DHT22;2420;51.202;8.698;2022-12-29T06:45:24;8.80;1.00
4813;DHT22;2420;51.202;8.698;2022-12-29T06:47:50;8.80;1.00
4813;DHT22;2420;51.202;8.698;2022-12-29T06:50:15;8.80;1.00
4813;DHT22;2420;51.202;8.698;2022-12-29T06:52:41;8.70;1.00
4813;DHT22;2420;51.202;8.698;2022-12-29T06:55:07;8.80;1.00
4813;DHT22;2420;51.202;8.698;2022-12-29T06:57:32;8.80;1.00
4813;DHT22;2420;51.202;8.698;2022-12-29T06:59:58;8.80;1.00
4813;DHT22;2420;51.202;8.698;2022-12-29T07:02:23;8.80;1.00
4813;DHT22;2420;51.202;8.698;2022-12-29T07:04:51;8.80;1.00
4813;DHT22;2420;51.202;8.698;2022-12-29T07:07:18;8.80;1.00
4813;DHT22;2420;51.202;8.698;2022-12-29T07:09:43;8.80;1.00
4813;DHT22;2420;51.202;8.698;2022-12-29T07:12:09;8.80;1.00
4813;DHT22;2420;51.202;8.698;2022-12-29T07:14:34;8.70;1.00
4813;DHT22;2420;51.202;8.698;2022-12-29T07:17:01;8.70;1.00
4813;DHT22;2420;51.202;8.698;2022-12-29T07:19:27;8.60;1.00
4813;DHT22;2420;51.202;8.698;2022-12-29T07:21:54;8.60;1.00
4813;DHT22;2420;51.202;8.698;2022-12-29T07:24:20;8.60;1.00
4813;DHT22;2420;51.202;8.698;2022-12-29T07:26:45;8.60;1.00
4813;DHT22;2420;51.202;8.698;2022-12-29T07:29:11;8.60;1.00
4813;DHT22;2420;51.202;8.698;2022-12-29T07:31:36;8.60;1.00
4813;DHT22;2420;51.202;8.698;2022-12-29T07:34:02;8.60;1.00
4813;DHT22;2420;51.202;8.698;2022-12-29T07:36:27;8.60;1.00
4813;DHT22;2420;51.202;8.698;2022-12-29T07:38:53;8.50;1.00
4813;DHT22;2420;51.202;8.698;2022-12-29T07:41:19;8.50;1.00
4813;DHT22;2420;51.202;8.698;2022-12-29T07:43:47;8.50;1.00
4813;DHT22;2420;51.202;8.698;2022-12-29T07:46:13;8.50;1.00
4813;DHT22;2420;51.202;8.698;2022-12-29T07:48:39;8.60;1.00
4813;DHT22;2420;51.202;8.698;2022-12-29T07:51:04;8.50;1.00
4813;DHT22;2420;51.202;8.698;2022-12-29T07:53:30;8.40;1.00
4813;DHT22;2420;51.202;8.698;2022-12-29T07:55:56;8.20;1.00
4813;DHT22;2420;51.202;8.698;2022-12-29T07:58:21;8.00;1.00
4813;DHT22;2420;51.202;8.698;2022-12-29T08:00:47;7.90;1.00
4813;DHT22;2420;51.202;8.698;2022-12-29T08:03:12;7.90;1.00
4813;DHT22;2420;51.202;8.698;2022-12-29T08:05:38;7.80;1.00
4813;DHT22;2420;51.202;8.698;2022-12-29T08:08:03;7.70;1.00
4813;DHT22;2420;51.202;8.698;2022-12-29T08:10:29;7.70;1.00
4813;DHT22;2420;51.202;8.698;2022-12-29T08:12:54;7.70;1.00
4813;DHT22;2420;51.202;8.698;2022-12-29T08:15:20;7.60;1.00
4813;DHT22;2420;51.202;8.698;2022-12-29T08:17:45;7.60;1.00
4813;DHT22;2420;51.202;8.698;2022-12-29T08:20:11;7.60;1.00
4813;DHT22;2420;51.202;8.698;2022-12-29T08:22:37;7.50;1.00
4813;DHT22;2420;51.202;8.698;2022-12-29T08:25:03;7.60;1.00
4813;DHT22;2420;51.202;8.698;2022-12-29T08:27:28;7.60;1.00
4813;DHT22;2420;51.202;8.698;2022-12-29T08:29:54;7.60;1.00
4813;DHT22;2420;51.202;8.698;2022-12-29T08:32:19;7.50;1.00
4813;DHT22;2420;51.202;8.698;2022-12-29T08:34:45;7.50;1.00
4813;DHT22;2420;51.202;8.698;2022-12-29T08:37:10;7.60;1.00
4813;DHT22;2420;51.202;8.698;2022-12-29T08:39:36;7.60;1.00
4813;DHT22;2420;51.202;8.698;2022-12-29T08:42:02;7.60;1.00
4813;DHT22;2420;51.202;8.698;2022-12-29T08:44:27;7.70;1.00
4813;DHT22;2420;51.202;8.698;2022-12-29T08:46:53;7.70;1.00
4813;DHT22;2420;51.202;8.698;2022-12-29T08:49:18;7.70;1.00
4813;DHT22;2420;51.202;8.698;2022-12-29T08:51:44;7.60;1.00
4813;DHT22;2420;51.202;8.698;2022-12-29T08:54:09;7.70;1.00
4813;DHT22;2420;51.202;8.698;2022-12-29T08:56:35;7.70;1.00
4813;DHT22;2420;51.202;8.698;2022-12-29T08:59:01;7.80;1.00
4813;DHT22;2420;51.202;8.698;2022-12-29T09:01:26;7.90;1.00
4813;DHT22;2420;51.202;8.698;2022-12-29T09:03:53;7.90;1.00
4813;DHT22;2420;51.202;8.698;2022-12-29T09:06:19;7.90;1.00
4813;DHT22;2420;51.202;8.698;2022-12-29T09:08:44;8.00;1.00
4813;DHT22;2420;51.202;8.698;2022-12-29T09:11:14;7.90;1.00
4813;DHT22;2420;51.202;8.698;2022-12-29T09:13:40;7.90;1.00
4813;DHT22;2420;51.202;8.698;2022-12-29T09:16:06;7.90;1.00
4813;DHT22;2420;51.202;8.698;2022-12-29T09:18:31;7.90;1.00
4813;DHT22;2420;51.202;8.698;2022-12-29T09:21:02;7.90;1.00
4813;DHT22;2420;51.202;8.698;2022-12-29T09:23:28;8.00;1.00
4813;DHT22;2420;51.202;8.698;2022-12-29T09:25:54;8.00;1.00
4813;DHT22;2420;51.202;8.698;2022-12-29T09:28:20;8.10;1.00
4813;DHT22;2420;51.202;8.698;2022-12-29T09:30:46;8.10;1.00
4813;DHT22;2420;51.202;8.698;2022-12-29T09:33:12;8.20;1.00
4813;DHT22;2420;51.202;8.698;2022-12-29T09:35:42;8.20;1.00
4813;DHT22;2420;51.202;8.698;2022-12-29T09:38:07;8.40;1.00
4813;DHT22;2420;51.202;8.698;2022-12-29T09:40:34;8.50;1.00
4813;DHT22;2420;51.202;8.698;2022-12-29T09:43:36;8.50;1.00
4813;DHT22;2420;51.202;8.698;2022-12-29T09:48:43;8.80;1.00
4813;DHT22;2420;51.202;8.698;2022-12-29T09:51:22;8.80;1.00
4813;DHT22;2420;51.202;8.698;2022-12-29T09:53:57;8.80;1.00
4813;DHT22;2420;51.202;8.698;2022-12-29T09:56:24;8.70;1.00
4813;DHT22;2420;51.202;8.698;2022-12-29T09:59:00;8.70;1.00
4813;DHT22;2420;51.202;8.698;2022-12-29T10:01:59;8.70;1.00
4813;DHT22;2420;51.202;8.698;2022-12-29T10:04:29;8.60;1.00
4813;DHT22;2420;51.202;8.698;2022-12-29T10:07:08;8.60;1.00
4813;DHT22;2420;51.202;8.698;2022-12-29T10:12:46;8.60;1.00
4813;DHT22;2420;51.202;8.698;2022-12-29T10:18:32;8.60;1.00
4813;DHT22;2420;51.202;8.698;2022-12-29T10:21:22;8.50;1.00
4813;DHT22;2420;51.202;8.698;2022-12-29T10:23:52;8.40;1.00
4813;DHT22;2420;51.202;8.698;2022-12-29T10:26:23;8.40;1.00
4813;DHT22;2420;51.202;8.698;2022-12-29T10:28:59;8.40;1.00
4813;DHT22;2420;51.202;8.698;2022-12-29T10:31:57;8.40;1.00
4813;DHT22;2420;51.202;8.698;2022-12-29T10:34:38;8.50;1.00
4813;DHT22;2420;51.202;8.698;2022-12-29T10:39:33;8.40;1.00
4813;DHT22;2420;51.202;8.698;2022-12-29T10:42:18;8.30;1.00
4813;DHT22;2420;51.202;8.698;2022-12-29T10:44:46;8.30;1.00
4813;DHT22;2420;51.202;8.698;2022-12-29T10:47:21;8.30;1.00
4813;DHT22;2420;51.202;8.698;2022-12-29T10:49:49;8.30;1.00
4813;DHT22;2420;51.202;8.698;2022-12-29T10:52:17;8.40;1.00
4813;DHT22;2420;51.202;8.698;2022-12-29T10:54:54;8.40;1.00
4813;DHT22;2420;51.202;8.698;2022-12-29T10:57:38;8.40;1.00
4813;DHT22;2420;51.202;8.698;2022-12-29T11:00:13;8.40;1.00
4813;DHT22;2420;51.202;8.698;2022-12-29T11:02:51;8.40;1.00
4813;DHT22;2420;51.202;8.698;2022-12-29T11:05:41;8.30;1.00
4813;DHT22;2420;51.202;8.698;2022-12-29T11:08:14;8.30;1.00
4813;DHT22;2420;51.202;8.698;2022-12-29T11:10:43;8.30;1.00
4813;DHT22;2420;51.202;8.698;2022-12-29T11:13:24;8.30;1.00
4813;DHT22;2420;51.202;8.698;2022-12-29T11:15:50;8.30;1.00
4813;DHT22;2420;51.202;8.698;2022-12-29T11:18:21;8.30;1.00
4813;DHT22;2420;51.202;8.698;2022-12-29T11:20:48;8.30;1.00
4813;DHT22;2420;51.202;8.698;2022-12-29T11:26:07;8.30;1.00
4813;DHT22;2420;51.202;8.698;2022-12-29T11:28:33;8.30;1.00
4813;DHT22;2420;51.202;8.698;2022-12-29T11:31:03;8.30;1.00
4813;DHT22;2420;51.202;8.698;2022-12-29T11:33:29;8.30;1.00
4813;DHT22;2420;51.202;8.698;2022-12-29T11:36:05;8.30;1.00
4813;DHT22;2420;51.202;8.698;2022-12-29T11:38:45;8.30;1.00
4813;DHT22;2420;51.202;8.698;2022-12-29T11:41:13;8.40;1.00
4813;DHT22;2420;51.202;8.698;2022-12-29T11:43:44;8.30;1.00
4813;DHT22;2420;51.202;8.698;2022-12-29T11:46:23;8.20;1.00
4813;DHT22;2420;51.202;8.698;2022-12-29T11:48:50;8.20;1.00
4813;DHT22;2420;51.202;8.698;2022-12-29T11:51:25;8.20;1.00
4813;DHT22;2420;51.202;8.698;2022-12-29T11:53:59;8.30;1.00
4813;DHT22;2420;51.202;8.698;2022-12-29T11:56:41;8.20;1.00
4813;DHT22;2420;51.202;8.698;2022-12-29T12:01:52;8.30;1.00
4813;DHT22;2420;51.202;8.698;2022-12-29T12:04:21;8.20;1.00
4813;DHT22;2420;51.202;8.698;2022-12-29T12:07:02;8.20;1.00
4813;DHT22;2420;51.202;8.698;2022-12-29T12:09:36;8.30;1.00
4813;DHT22;2420;51.202;8.698;2022-12-29T12:12:05;8.40;1.00
4813;DHT22;2420;51.202;8.698;2022-12-29T12:14:43;8.40;1.00
4813;DHT22;2420;51.202;8.698;2022-12-29T12:17:18;8.40;1.00
4813;DHT22;2420;51.202;8.698;2022-12-29T12:22:20;8.40;1.00
4813;DHT22;2420;51.202;8.698;2022-12-29T12:24:51;8.40;1.00
4813;DHT22;2420;51.202;8.698;2022-12-29T12:27:33;8.40;1.00
4813;DHT22;2420;51.202;8.698;2022-12-29T12:30:19;8.50;1.00
4813;DHT22;2420;51.202;8.698;2022-12-29T12:32:55;8.50;1.00
4813;DHT22;2420;51.202;8.698;2022-12-29T12:44:18;8.60;1.00
4813;DHT22;2420;51.202;8.698;2022-12-29T12:47:01;8.50;1.00
4813;DHT22;2420;51.202;8.698;2022-12-29T12:50:12;8.50;1.00
4813;DHT22;2420;51.202;8.698;2022-12-29T12:55:54;8.60;1.00
4813;DHT22;2420;51.202;8.698;2022-12-29T12:58:26;8.50;1.00
4813;DHT22;2420;51.202;8.698;2022-12-29T13:07:26;8.50;1.00
4813;DHT22;2420;51.202;8.698;2022-12-29T13:09:55;8.50;1.00
4813;DHT22;2420;51.202;8.698;2022-12-29T13:12:38;8.40;1.00
4813;DHT22;2420;51.202;8.698;2022-12-29T13:20:53;8.30;1.00
4813;DHT22;2420;51.202;8.698;2022-12-29T13:23:22;8.30;1.00
4813;DHT22;2420;51.202;8.698;2022-12-29T13:29:21;8.10;1.00
4813;DHT22;2420;51.202;8.698;2022-12-29T13:34:36;8.00;1.00
4813;DHT22;2420;51.202;8.698;2022-12-29T13:37:13;7.90;1.00
4813;DHT22;2420;51.202;8.698;2022-12-29T13:39:54;7.80;1.00
4813;DHT22;2420;51.202;8.698;2022-12-29T13:42:21;7.80;1.00
4813;DHT22;2420;51.202;8.698;2022-12-29T13:45:00;7.80;1.00
4813;DHT22;2420;51.202;8.698;2022-12-29T13:49:55;7.80;1.00
4813;DHT22;2420;51.202;8.698;2022-12-29T13:52:35;7.80;1.00
4813;DHT22;2420;51.202;8.698;2022-12-29T13:58:00;7.80;1.00
4813;DHT22;2420;51.202;8.698;2022-12-29T14:00:29;7.80;1.00
4813;DHT22;2420;51.202;8.698;2022-12-29T14:06:05;7.80;1.00
4813;DHT22;2420;51.202;8.698;2022-12-29T14:08:36;7.80;1.00
4813;DHT22;2420;51.202;8.698;2022-12-29T14:11:11;7.80;1.00
4813;DHT22;2420;51.202;8.698;2022-12-29T14:13:42;7.90;1.00
4813;DHT22;2420;51.202;8.698;2022-12-29T14:16:25;7.90;1.00
4813;DHT22;2420;51.202;8.698;2022-12-29T14:18:51;7.80;1.00
4813;DHT22;2420;51.202;8.698;2022-12-29T14:21:21;7.80;1.00
4813;DHT22;2420;51.202;8.698;2022-12-29T14:23:50;7.80;1.00
4813;DHT22;2420;51.202;8.698;2022-12-29T14:28:45;7.80;1.00
4813;DHT22;2420;51.202;8.698;2022-12-29T14:33:41;7.80;1.00
4813;DHT22;2420;51.202;8.698;2022-12-29T14:36:34;7.80;1.00
4813;DHT22;2420;51.202;8.698;2022-12-29T14:38:59;7.70;1.00
4813;DHT22;2420;51.202;8.698;2022-12-29T14:41:39;7.80;1.00
4813;DHT22;2420;51.202;8.698;2022-12-29T14:44:18;7.70;1.00
4813;DHT22;2420;51.202;8.698;2022-12-29T14:49:21;7.80;1.00
4813;DHT22;2420;51.202;8.698;2022-12-29T14:51:49;7.80;1.00
4813;DHT22;2420;51.202;8.698;2022-12-29T14:57:00;7.80;1.00
4813;DHT22;2420;51.202;8.698;2022-12-29T14:59:28;7.80;1.00
4813;DHT22;2420;51.202;8.698;2022-12-29T15:01:55;7.80;1.00
4813;DHT22;2420;51.202;8.698;2022-12-29T15:04:30;7.70;1.00
4813;DHT22;2420;51.202;8.698;2022-12-29T15:06:57;7.70;1.00
4813;DHT22;2420;51.202;8.698;2022-12-29T15:09:34;7.70;1.00
4813;DHT22;2420;51.202;8.698;2022-12-29T15:12:15;7.80;1.00
4813;DHT22;2420;51.202;8.698;2022-12-29T15:14:55;7.70;1.00
4813;DHT22;2420;51.202;8.698;2022-12-29T15:17:32;7.60;1.00
4813;DHT22;2420;51.202;8.698;2022-12-29T15:20:32;7.60;1.00
4813;DHT22;2420;51.202;8.698;2022-12-29T15:22:56;7.50;1.00
4813;DHT22;2420;51.202;8.698;2022-12-29T15:25:23;7.50;1.00
4813;DHT22;2420;51.202;8.698;2022-12-29T15:27:54;7.50;1.00
4813;DHT22;2420;51.202;8.698;2022-12-29T15:30:20;7.50;1.00
4813;DHT22;2420;51.202;8.698;2022-12-29T15:32:47;7.50;1.00
4813;DHT22;2420;51.202;8.698;2022-12-29T15:35:33;7.50;1.00
4813;DHT22;2420;51.202;8.698;2022-12-29T15:38:00;7.50;1.00
4813;DHT22;2420;51.202;8.698;2022-12-29T15:40:30;7.50;1.00
4813;DHT22;2420;51.202;8.698;2022-12-29T15:43:21;7.50;1.00
4813;DHT22;2420;51.202;8.698;2022-12-29T15:45:49;7.60;1.00
4813;DHT22;2420;51.202;8.698;2022-12-29T15:48:21;7.50;1.00
4813;DHT22;2420;51.202;8.698;2022-12-29T15:50:48;7.50;1.00
4813;DHT22;2420;51.202;8.698;2022-12-29T15:53:23;7.50;1.00
4813;DHT22;2420;51.202;8.698;2022-12-29T15:55:54;7.60;1.00
4813;DHT22;2420;51.202;8.698;2022-12-29T15:58:23;7.50;1.00
4813;DHT22;2420;51.202;8.698;2022-12-29T16:00:57;7.50;1.00
4813;DHT22;2420;51.202;8.698;2022-12-29T16:03:25;7.40;1.00
4813;DHT22;2420;51.202;8.698;2022-12-29T16:05:57;7.40;1.00
4813;DHT22;2420;51.202;8.698;2022-12-29T16:08:35;7.30;1.00
4813;DHT22;2420;51.202;8.698;2022-12-29T16:11:07;7.40;1.00
4813;DHT22;2420;51.202;8.698;2022-12-29T16:13:37;7.40;1.00
4813;DHT22;2420;51.202;8.698;2022-12-29T16:16:16;7.40;1.00
4813;DHT22;2420;51.202;8.698;2022-12-29T16:18:43;7.40;1.00
4813;DHT22;2420;51.202;8.698;2022-12-29T16:21:31;7.50;1.00
4813;DHT22;2420;51.202;8.698;2022-12-29T16:24:04;7.50;1.00
4813;DHT22;2420;51.202;8.698;2022-12-29T16:26:30;7.50;1.00
4813;DHT22;2420;51.202;8.698;2022-12-29T16:28:58;7.40;1.00
4813;DHT22;2420;51.202;8.698;2022-12-29T16:31:36;7.40;1.00
4813;DHT22;2420;51.202;8.698;2022-12-29T16:37:02;7.40;1.00
4813;DHT22;2420;51.202;8.698;2022-12-29T16:39:36;7.30;1.00
4813;DHT22;2420;51.202;8.698;2022-12-29T16:50:42;7.30;1.00
4813;DHT22;2420;51.202;8.698;2022-12-29T16:55:50;7.20;1.00
4813;DHT22;2420;51.202;8.698;2022-12-29T16:58:21;7.20;1.00
4813;DHT22;2420;51.202;8.698;2022-12-29T17:00:47;7.20;1.00
4813;DHT22;2420;51.202;8.698;2022-12-29T17:03:14;7.20;1.00
4813;DHT22;2420;51.202;8.698;2022-12-29T17:05:40;7.10;1.00
4813;DHT22;2420;51.202;8.698;2022-12-29T17:08:19;7.10;1.00
4813;DHT22;2420;51.202;8.698;2022-12-29T17:10:55;7.10;1.00
4813;DHT22;2420;51.202;8.698;2022-12-29T17:13:40;7.00;1.00
4813;DHT22;2420;51.202;8.698;2022-12-29T17:16:06;6.90;1.00
4813;DHT22;2420;51.202;8.698;2022-12-29T17:18:33;6.80;1.00
4813;DHT22;2420;51.202;8.698;2022-12-29T17:20:59;6.80;1.00
4813;DHT22;2420;51.202;8.698;2022-12-29T17:23:25;6.90;1.00
4813;DHT22;2420;51.202;8.698;2022-12-29T17:25:52;6.80;1.00
4813;DHT22;2420;51.202;8.698;2022-12-29T17:28:26;6.80;1.00
4813;DHT22;2420;51.202;8.698;2022-12-29T17:30:54;6.80;1.00
4813;DHT22;2420;51.202;8.698;2022-12-29T17:33:22;6.90;1.00
4813;DHT22;2420;51.202;8.698;2022-12-29T17:35:48;6.90;1.00
4813;DHT22;2420;51.202;8.698;2022-12-29T17:38:27;6.90;1.00
4813;DHT22;2420;51.202;8.698;2022-12-29T17:40:53;6.90;1.00
4813;DHT22;2420;51.202;8.698;2022-12-29T17:43:19;6.90;1.00
4813;DHT22;2420;51.202;8.698;2022-12-29T17:45:56;6.90;1.00
4813;DHT22;2420;51.202;8.698;2022-12-29T17:48:23;6.80;1.00
4813;DHT22;2420;51.202;8.698;2022-12-29T17:50:51;6.80;1.00
4813;DHT22;2420;51.202;8.698;2022-12-29T17:53:25;6.70;1.00
4813;DHT22;2420;51.202;8.698;2022-12-29T17:55:52;6.70;1.00
4813;DHT22;2420;51.202;8.698;2022-12-29T17:58:21;6.80;1.00
4813;DHT22;2420;51.202;8.698;2022-12-29T18:00:49;6.70;1.00
4813;DHT22;2420;51.202;8.698;2022-12-29T18:03:17;6.70;1.00
4813;DHT22;2420;51.202;8.698;2022-12-29T18:05:44;6.60;1.00
4813;DHT22;2420;51.202;8.698;2022-12-29T18:08:10;6.70;1.00
4813;DHT22;2420;51.202;8.698;2022-12-29T18:10:37;6.70;1.00
4813;DHT22;2420;51.202;8.698;2022-12-29T18:13:03;6.70;1.00
4813;DHT22;2420;51.202;8.698;2022-12-29T18:15:31;6.70;1.00
4813;DHT22;2420;51.202;8.698;2022-12-29T18:18:10;6.80;1.00
4813;DHT22;2420;51.202;8.698;2022-12-29T18:20:37;6.80;1.00
4813;DHT22;2420;51.202;8.698;2022-12-29T18:23:03;6.80;1.00
4813;DHT22;2420;51.202;8.698;2022-12-29T18:25:42;6.80;1.00
4813;DHT22;2420;51.202;8.698;2022-12-29T18:28:10;6.80;1.00
4813;DHT22;2420;51.202;8.698;2022-12-29T18:30:36;6.80;1.00
4813;DHT22;2420;51.202;8.698;2022-12-29T18:33:02;6.80;1.00
4813;DHT22;2420;51.202;8.698;2022-12-29T18:35:36;6.70;1.00
4813;DHT22;2420;51.202;8.698;2022-12-29T18:38:02;6.70;1.00
4813;DHT22;2420;51.202;8.698;2022-12-29T18:40:30;6.80;1.00
4813;DHT22;2420;51.202;8.698;2022-12-29T18:42:56;6.80;1.00